Terminal Aerodrome Forecast
Issued by NWS Cleveland, OH

Home | Current Version | Previous Version | Graphics & Text | Print | Product List | Glossary On
Versions: 1 2 3 4 5 6 7 8 9 10 11 12 13 14 15 16 17 18 19 20 21
000
FTUS41 KCLE 210859 AAB
TAFCLE
TAF AMD
KCLE 210859Z 2109/2212 16003KT P6SM FEW250
      TEMPO 2110/2113 5SM BR
     FM211700 02006KT P6SM SCT050
     FM220200 00000KT P6SM SCT250
     FM220900 17003KT 6SM BR SCT250=

USA.gov is the U.S. government's official web portal to all federal, state and local government web resources and services.